Shipshaw, Canada
Current Conditions -  °F | °C
As of 4:00 PM on Friday 28 Nov 2014 (Local Time) from CYBG Reporting Station
Snow Showers Snow Showers  
Wind Chill:   Ceiling: 24000
Heat Index: 14°   Visibility: 10mi
Dew Point:   Wind: 7mph
Humidity: 73%   Direction: 270°W
Pressure: 30.06"   Gusts: NA
Location:  48.45°N, 71.22°W
Report Text: CYBG 282100Z 27006KT 10SM -SHSN SCT018 SCT060 BKN240 M10/M14 A3006 RMK SC3SC1CI1 SLP194
Loading
Personal Weather Stations






























Interactive Weather Map New forecast layout! Learn more

10-Day Weather Forecast

Advertisements
Track Severe Weather on mobile